首页
METAR-TAF:

METAR-TAF

机场 :

安塔基亞, 土耳其

纬度: 36-21-46N, 经度: 36-16-56E, 海拔: 1950米

当前天气观测

该预报发布于26分钟前的02:50 UTC
风速5节,风向西南
温度 19°C
湿度 60%
气压 1012 hPa
能见度10公里或以上
散云层高于14000英尺

METAR: LTDA 010250Z 22005KT 9999 SCT140 19/11 Q1012 NOSIG

时间: 06:16 (03:16 UTC)

预报

该预报发布于1小时和36分钟前的01:40 UTC
预报有效从01日的 03点(UTC)到 01日的 12点(UTC)
风速8节,风向西南
能见度10公里或以上
1500米以下无云,无积雨云
成为
从 01日的 05点(UTC)到 01日的 09点(UTC)
风速18节,风向西南
散云层高于3500英尺

TAF: LTDA 010140Z 0103/0112 23008KT CAVOK BECMG 0105/0109 23018KT SCT035

超过4000个机场的气象观测和天气预报(METAR&TAF报告)。

可查询的气象台以黄色和红色小点在地图上表示。

将鼠标移到小点上方,可查看气象台名称。

然后点击查看天气观测和预报。

如需切换地图:点击带黑十字的绿色按钮放大地图;点击带横线的绿色按钮缩小地图;或者点击绿色箭头查看邻近地区的地图。


METAR-TAF: